sensor_id;sensor_type;location;lat;lon;timestamp;temperature;humidity
74359;DHT22;62792;46.236;6.040;2023-04-24T00:04:16;21.80;52.70
74359;DHT22;62792;46.236;6.040;2023-04-24T00:09:19;21.70;52.60
74359;DHT22;62792;46.236;6.040;2023-04-24T00:14:24;21.80;52.70
74359;DHT22;62792;46.236;6.040;2023-04-24T00:19:26;21.70;52.60
74359;DHT22;62792;46.236;6.040;2023-04-24T00:24:29;21.80;52.50
74359;DHT22;62792;46.236;6.040;2023-04-24T00:29:34;21.70;52.60
74359;DHT22;62792;46.236;6.040;2023-04-24T00:34:37;21.70;52.60
74359;DHT22;62792;46.236;6.040;2023-04-24T00:39:40;21.80;52.80
74359;DHT22;62792;46.236;6.040;2023-04-24T00:44:44;21.80;52.60
74359;DHT22;62792;46.236;6.040;2023-04-24T00:49:47;21.80;52.70
74359;DHT22;62792;46.236;6.040;2023-04-24T00:54:50;21.80;52.50
74359;DHT22;62792;46.236;6.040;2023-04-24T00:59:54;21.80;52.70
74359;DHT22;62792;46.236;6.040;2023-04-24T01:04:57;21.90;52.80
74359;DHT22;62792;46.236;6.040;2023-04-24T01:10:00;21.80;52.70
74359;DHT22;62792;46.236;6.040;2023-04-24T01:15:05;21.90;52.90
74359;DHT22;62792;46.236;6.040;2023-04-24T01:20:09;21.80;52.70
74359;DHT22;62792;46.236;6.040;2023-04-24T01:25:14;21.80;52.70
74359;DHT22;62792;46.236;6.040;2023-04-24T01:30:17;21.80;53.00
74359;DHT22;62792;46.236;6.040;2023-04-24T01:35:20;21.80;52.60
74359;DHT22;62792;46.236;6.040;2023-04-24T01:40:24;21.80;52.50
74359;DHT22;62792;46.236;6.040;2023-04-24T01:45:27;21.80;52.50
74359;DHT22;62792;46.236;6.040;2023-04-24T01:50:30;21.80;52.50
74359;DHT22;62792;46.236;6.040;2023-04-24T01:55:34;21.90;52.50
74359;DHT22;62792;46.236;6.040;2023-04-24T02:00:37;21.90;52.50
74359;DHT22;62792;46.236;6.040;2023-04-24T02:05:40;21.80;52.70
74359;DHT22;62792;46.236;6.040;2023-04-24T02:10:47;21.80;52.60
74359;DHT22;62792;46.236;6.040;2023-04-24T02:15:50;21.80;52.50
74359;DHT22;62792;46.236;6.040;2023-04-24T02:20:53;21.90;52.60
74359;DHT22;62792;46.236;6.040;2023-04-24T02:25:57;21.80;52.80
74359;DHT22;62792;46.236;6.040;2023-04-24T02:31:00;21.90;52.40
74359;DHT22;62792;46.236;6.040;2023-04-24T02:36:03;21.80;52.60
74359;DHT22;62792;46.236;6.040;2023-04-24T02:41:07;21.90;52.60
74359;DHT22;62792;46.236;6.040;2023-04-24T02:46:10;21.80;52.50
74359;DHT22;62792;46.236;6.040;2023-04-24T02:51:13;21.90;52.50
74359;DHT22;62792;46.236;6.040;2023-04-24T02:56:17;21.80;52.40
74359;DHT22;62792;46.236;6.040;2023-04-24T03:01:20;21.90;52.50
74359;DHT22;62792;46.236;6.040;2023-04-24T03:06:23;21.90;52.50
74359;DHT22;62792;46.236;6.040;2023-04-24T03:11:27;21.80;52.50
74359;DHT22;62792;46.236;6.040;2023-04-24T03:16:30;21.90;52.50
74359;DHT22;62792;46.236;6.040;2023-04-24T03:21:34;22.00;52.50
74359;DHT22;62792;46.236;6.040;2023-04-24T03:26:43;21.90;52.50
74359;DHT22;62792;46.236;6.040;2023-04-24T03:31:46;21.90;52.60
74359;DHT22;62792;46.236;6.040;2023-04-24T03:36:49;21.80;52.40
74359;DHT22;62792;46.236;6.040;2023-04-24T03:41:53;21.90;52.60
74359;DHT22;62792;46.236;6.040;2023-04-24T03:46:57;21.80;52.60
74359;DHT22;62792;46.236;6.040;2023-04-24T03:52:00;21.90;52.70
74359;DHT22;62792;46.236;6.040;2023-04-24T03:57:04;21.90;52.50
74359;DHT22;62792;46.236;6.040;2023-04-24T04:02:10;21.90;52.50
74359;DHT22;62792;46.236;6.040;2023-04-24T04:07:13;22.00;52.70
74359;DHT22;62792;46.236;6.040;2023-04-24T04:12:17;21.90;52.80
74359;DHT22;62792;46.236;6.040;2023-04-24T04:17:20;21.90;52.70
74359;DHT22;62792;46.236;6.040;2023-04-24T04:22:22;21.90;52.50
74359;DHT22;62792;46.236;6.040;2023-04-24T04:27:27;21.90;52.60
74359;DHT22;62792;46.236;6.040;2023-04-24T04:32:30;21.90;52.50
74359;DHT22;62792;46.236;6.040;2023-04-24T04:37:34;21.90;52.40
74359;DHT22;62792;46.236;6.040;2023-04-24T04:42:38;21.90;52.50
74359;DHT22;62792;46.236;6.040;2023-04-24T04:47:42;21.90;52.60
74359;DHT22;62792;46.236;6.040;2023-04-24T04:52:45;21.80;52.50
74359;DHT22;62792;46.236;6.040;2023-04-24T04:57:50;21.90;52.60
74359;DHT22;62792;46.236;6.040;2023-04-24T05:02:53;21.90;52.60
74359;DHT22;62792;46.236;6.040;2023-04-24T05:08:06;21.90;52.80
74359;DHT22;62792;46.236;6.040;2023-04-24T05:13:27;21.90;52.60
74359;DHT22;62792;46.236;6.040;2023-04-24T05:18:41;21.90;52.70
74359;DHT22;62792;46.236;6.040;2023-04-24T05:23:44;21.90;52.60
74359;DHT22;62792;46.236;6.040;2023-04-24T05:28:48;22.00;52.50
74359;DHT22;62792;46.236;6.040;2023-04-24T05:33:51;21.90;52.60
74359;DHT22;62792;46.236;6.040;2023-04-24T05:38:54;21.90;52.40
74359;DHT22;62792;46.236;6.040;2023-04-24T05:43:59;21.90;52.30
74359;DHT22;62792;46.236;6.040;2023-04-24T05:49:02;22.00;52.50
74359;DHT22;62792;46.236;6.040;2023-04-24T05:54:05;22.00;52.50
74359;DHT22;62792;46.236;6.040;2023-04-24T05:59:09;22.00;52.40
74359;DHT22;62792;46.236;6.040;2023-04-24T06:04:12;22.00;52.50
74359;DHT22;62792;46.236;6.040;2023-04-24T06:09:16;21.90;52.40
74359;DHT22;62792;46.236;6.040;2023-04-24T06:14:20;22.00;52.30
74359;DHT22;62792;46.236;6.040;2023-04-24T06:19:23;22.10;52.40
74359;DHT22;62792;46.236;6.040;2023-04-24T06:24:27;22.00;52.10
74359;DHT22;62792;46.236;6.040;2023-04-24T06:29:31;22.10;52.20
74359;DHT22;62792;46.236;6.040;2023-04-24T06:34:35;22.10;52.00
74359;DHT22;62792;46.236;6.040;2023-04-24T06:39:38;22.20;52.10
74359;DHT22;62792;46.236;6.040;2023-04-24T06:44:42;22.10;51.90
74359;DHT22;62792;46.236;6.040;2023-04-24T06:49:46;22.10;51.80
74359;DHT22;62792;46.236;6.040;2023-04-24T06:54:50;22.20;51.80
74359;DHT22;62792;46.236;6.040;2023-04-24T06:59:54;22.20;51.40
74359;DHT22;62792;46.236;6.040;2023-04-24T07:04:57;22.20;51.40
74359;DHT22;62792;46.236;6.040;2023-04-24T07:10:00;22.20;51.20
74359;DHT22;62792;46.236;6.040;2023-04-24T07:15:05;22.30;51.10
74359;DHT22;62792;46.236;6.040;2023-04-24T07:20:10;22.20;50.80
74359;DHT22;62792;46.236;6.040;2023-04-24T07:25:13;22.20;50.50
74359;DHT22;62792;46.236;6.040;2023-04-24T07:30:17;22.30;50.20
74359;DHT22;62792;46.236;6.040;2023-04-24T07:35:20;22.30;50.20
74359;DHT22;62792;46.236;6.040;2023-04-24T07:40:23;22.20;49.90
74359;DHT22;62792;46.236;6.040;2023-04-24T07:45:28;22.30;49.70
74359;DHT22;62792;46.236;6.040;2023-04-24T07:50:31;22.20;49.50
74359;DHT22;62792;46.236;6.040;2023-04-24T07:55:33;22.30;49.30
74359;DHT22;62792;46.236;6.040;2023-04-24T08:00:38;22.40;49.10
74359;DHT22;62792;46.236;6.040;2023-04-24T08:05:41;22.30;48.80
74359;DHT22;62792;46.236;6.040;2023-04-24T08:10:47;22.40;48.90
74359;DHT22;62792;46.236;6.040;2023-04-24T08:15:51;22.40;48.80
74359;DHT22;62792;46.236;6.040;2023-04-24T08:20:54;22.40;48.70
74359;DHT22;62792;46.236;6.040;2023-04-24T08:25:57;22.40;48.10
74359;DHT22;62792;46.236;6.040;2023-04-24T08:31:02;22.30;48.20
74359;DHT22;62792;46.236;6.040;2023-04-24T08:36:05;22.50;47.80
74359;DHT22;62792;46.236;6.040;2023-04-24T08:41:08;22.40;47.60
74359;DHT22;62792;46.236;6.040;2023-04-24T08:46:13;22.50;47.60
74359;DHT22;62792;46.236;6.040;2023-04-24T08:51:18;22.50;47.10
74359;DHT22;62792;46.236;6.040;2023-04-24T08:56:21;22.60;47.20
74359;DHT22;62792;46.236;6.040;2023-04-24T09:01:26;22.60;47.20
74359;DHT22;62792;46.236;6.040;2023-04-24T09:06:30;22.60;47.10
74359;DHT22;62792;46.236;6.040;2023-04-24T09:11:34;22.60;46.80
74359;DHT22;62792;46.236;6.040;2023-04-24T09:16:38;22.60;46.80
74359;DHT22;62792;46.236;6.040;2023-04-24T09:21:41;22.50;47.00
74359;DHT22;62792;46.236;6.040;2023-04-24T09:26:48;22.60;46.70
74359;DHT22;62792;46.236;6.040;2023-04-24T09:31:52;22.60;46.60
74359;DHT22;62792;46.236;6.040;2023-04-24T09:36:55;22.60;46.70
74359;DHT22;62792;46.236;6.040;2023-04-24T09:41:58;22.70;46.50
74359;DHT22;62792;46.236;6.040;2023-04-24T09:47:05;22.70;46.60
74359;DHT22;62792;46.236;6.040;2023-04-24T09:52:11;22.70;46.30
74359;DHT22;62792;46.236;6.040;2023-04-24T09:57:14;22.60;46.50
74359;DHT22;62792;46.236;6.040;2023-04-24T10:02:18;22.70;46.20
74359;DHT22;62792;46.236;6.040;2023-04-24T10:07:25;22.70;46.30
74359;DHT22;62792;46.236;6.040;2023-04-24T10:12:28;22.80;46.20
74359;DHT22;62792;46.236;6.040;2023-04-24T10:17:33;22.80;46.00
74359;DHT22;62792;46.236;6.040;2023-04-24T10:22:36;22.70;45.90
74359;DHT22;62792;46.236;6.040;2023-04-24T10:27:39;22.80;45.70
74359;DHT22;62792;46.236;6.040;2023-04-24T10:32:44;22.80;45.50
74359;DHT22;62792;46.236;6.040;2023-04-24T10:37:48;22.80;45.10
74359;DHT22;62792;46.236;6.040;2023-04-24T10:42:52;22.90;45.10
74359;DHT22;62792;46.236;6.040;2023-04-24T10:48:01;22.90;44.80
74359;DHT22;62792;46.236;6.040;2023-04-24T10:53:07;22.90;44.60
74359;DHT22;62792;46.236;6.040;2023-04-24T10:58:16;22.90;44.60
74359;DHT22;62792;46.236;6.040;2023-04-24T11:03:24;23.00;44.80
74359;DHT22;62792;46.236;6.040;2023-04-24T11:08:29;23.00;44.70
74359;DHT22;62792;46.236;6.040;2023-04-24T11:19:06;23.00;44.60
74359;DHT22;62792;46.236;6.040;2023-04-24T11:24:26;23.00;44.90
74359;DHT22;62792;46.236;6.040;2023-04-24T11:29:40;23.00;44.40
74359;DHT22;62792;46.236;6.040;2023-04-24T11:34:46;23.00;44.60
74359;DHT22;62792;46.236;6.040;2023-04-24T11:39:50;23.10;44.40
74359;DHT22;62792;46.236;6.040;2023-04-24T11:44:55;23.10;44.10
74359;DHT22;62792;46.236;6.040;2023-04-24T11:50:00;23.10;44.30
74359;DHT22;62792;46.236;6.040;2023-04-24T11:55:05;23.10;44.00
74359;DHT22;62792;46.236;6.040;2023-04-24T12:00:14;23.10;44.10
74359;DHT22;62792;46.236;6.040;2023-04-24T12:05:20;23.10;43.50
74359;DHT22;62792;46.236;6.040;2023-04-24T12:10:24;23.10;43.60
74359;DHT22;62792;46.236;6.040;2023-04-24T12:15:28;23.20;43.40
74359;DHT22;62792;46.236;6.040;2023-04-24T12:20:33;23.20;43.60
74359;DHT22;62792;46.236;6.040;2023-04-24T12:25:36;23.20;43.50
74359;DHT22;62792;46.236;6.040;2023-04-24T12:30:41;23.20;43.50
74359;DHT22;62792;46.236;6.040;2023-04-24T12:35:47;23.20;43.40
74359;DHT22;62792;46.236;6.040;2023-04-24T12:41:01;23.30;43.00
74359;DHT22;62792;46.236;6.040;2023-04-24T12:46:05;23.20;43.40
74359;DHT22;62792;46.236;6.040;2023-04-24T12:51:09;23.30;43.00
74359;DHT22;62792;46.236;6.040;2023-04-24T12:56:12;23.30;43.10
74359;DHT22;62792;46.236;6.040;2023-04-24T13:01:15;23.30;43.00
74359;DHT22;62792;46.236;6.040;2023-04-24T13:06:19;23.30;42.90
74359;DHT22;62792;46.236;6.040;2023-04-24T13:11:22;23.40;42.80
74359;DHT22;62792;46.236;6.040;2023-04-24T13:16:25;23.30;42.60
74359;DHT22;62792;46.236;6.040;2023-04-24T13:21:30;23.40;42.70
74359;DHT22;62792;46.236;6.040;2023-04-24T13:26:33;23.50;42.40
74359;DHT22;62792;46.236;6.040;2023-04-24T13:31:36;23.50;42.30
74359;DHT22;62792;46.236;6.040;2023-04-24T13:36:40;23.50;42.00
74359;DHT22;62792;46.236;6.040;2023-04-24T13:41:44;23.50;42.10
74359;DHT22;62792;46.236;6.040;2023-04-24T13:46:49;23.50;42.10
74359;DHT22;62792;46.236;6.040;2023-04-24T13:51:54;23.50;42.00
74359;DHT22;62792;46.236;6.040;2023-04-24T13:56:58;23.60;42.10
74359;DHT22;62792;46.236;6.040;2023-04-24T14:02:01;23.60;42.10
74359;DHT22;62792;46.236;6.040;2023-04-24T14:07:06;23.50;41.90
74359;DHT22;62792;46.236;6.040;2023-04-24T14:12:09;23.60;41.10
74359;DHT22;62792;46.236;6.040;2023-04-24T14:17:12;23.70;41.30
74359;DHT22;62792;46.236;6.040;2023-04-24T14:22:16;23.80;41.00
74359;DHT22;62792;46.236;6.040;2023-04-24T14:27:19;23.90;41.00
74359;DHT22;62792;46.236;6.040;2023-04-24T14:32:22;24.00;40.60
74359;DHT22;62792;46.236;6.040;2023-04-24T14:37:26;24.10;40.80
74359;DHT22;62792;46.236;6.040;2023-04-24T14:42:29;24.10;40.70
74359;DHT22;62792;46.236;6.040;2023-04-24T14:47:32;24.10;40.60
74359;DHT22;62792;46.236;6.040;2023-04-24T14:52:36;24.30;40.50
74359;DHT22;62792;46.236;6.040;2023-04-24T14:57:39;24.50;40.10
74359;DHT22;62792;46.236;6.040;2023-04-24T15:02:42;24.50;40.10
74359;DHT22;62792;46.236;6.040;2023-04-24T15:07:49;24.40;40.10
74359;DHT22;62792;46.236;6.040;2023-04-24T15:12:52;24.50;40.10
74359;DHT22;62792;46.236;6.040;2023-04-24T15:17:54;24.90;39.40
74359;DHT22;62792;46.236;6.040;2023-04-24T15:22:59;24.50;39.60
74359;DHT22;62792;46.236;6.040;2023-04-24T15:28:03;24.40;39.70
74359;DHT22;62792;46.236;6.040;2023-04-24T15:33:06;24.80;39.60
74359;DHT22;62792;46.236;6.040;2023-04-24T15:38:11;25.60;38.50
74359;DHT22;62792;46.236;6.040;2023-04-24T15:43:14;26.80;36.90
74359;DHT22;62792;46.236;6.040;2023-04-24T15:48:18;26.10;37.70
74359;DHT22;62792;46.236;6.040;2023-04-24T15:53:22;25.20;38.50
74359;DHT22;62792;46.236;6.040;2023-04-24T15:58:25;24.70;38.90
74359;DHT22;62792;46.236;6.040;2023-04-24T16:03:28;25.00;38.70
74359;DHT22;62792;46.236;6.040;2023-04-24T16:08:32;24.80;38.70
74359;DHT22;62792;46.236;6.040;2023-04-24T16:13:35;24.90;38.70
74359;DHT22;62792;46.236;6.040;2023-04-24T16:18:38;25.60;38.10
74359;DHT22;62792;46.236;6.040;2023-04-24T16:23:42;26.20;37.60
74359;DHT22;62792;46.236;6.040;2023-04-24T16:28:45;26.70;36.40
74359;DHT22;62792;46.236;6.040;2023-04-24T16:33:48;27.10;36.10
74359;DHT22;62792;46.236;6.040;2023-04-24T16:38:52;27.50;35.80
74359;DHT22;62792;46.236;6.040;2023-04-24T16:43:55;27.80;35.60
74359;DHT22;62792;46.236;6.040;2023-04-24T16:48:58;27.30;36.00
74359;DHT22;62792;46.236;6.040;2023-04-24T16:54:03;28.00;35.40
74359;DHT22;62792;46.236;6.040;2023-04-24T16:59:06;26.30;37.20
74359;DHT22;62792;46.236;6.040;2023-04-24T17:04:09;27.10;36.00
74359;DHT22;62792;46.236;6.040;2023-04-24T17:09:13;26.00;37.30
74359;DHT22;62792;46.236;6.040;2023-04-24T17:14:17;25.90;37.50
74359;DHT22;62792;46.236;6.040;2023-04-24T17:19:20;25.20;38.20
74359;DHT22;62792;46.236;6.040;2023-04-24T17:24:24;24.90;38.60
74359;DHT22;62792;46.236;6.040;2023-04-24T17:29:27;24.70;38.70
74359;DHT22;62792;46.236;6.040;2023-04-24T17:34:30;24.60;38.60
74359;DHT22;62792;46.236;6.040;2023-04-24T17:39:35;24.50;39.00
74359;DHT22;62792;46.236;6.040;2023-04-24T17:44:37;24.40;38.90
74359;DHT22;62792;46.236;6.040;2023-04-24T17:49:40;24.40;39.00
74359;DHT22;62792;46.236;6.040;2023-04-24T17:54:45;24.30;39.00
74359;DHT22;62792;46.236;6.040;2023-04-24T17:59:50;24.20;39.10
74359;DHT22;62792;46.236;6.040;2023-04-24T18:04:52;24.10;39.20
74359;DHT22;62792;46.236;6.040;2023-04-24T18:09:57;24.00;39.30
74359;DHT22;62792;46.236;6.040;2023-04-24T18:15:00;23.90;39.40
74359;DHT22;62792;46.236;6.040;2023-04-24T18:20:15;23.80;39.40
74359;DHT22;62792;46.236;6.040;2023-04-24T18:25:20;23.70;39.60
74359;DHT22;62792;46.236;6.040;2023-04-24T18:30:27;23.70;39.70
74359;DHT22;62792;46.236;6.040;2023-04-24T18:35:31;23.60;40.20
74359;DHT22;62792;46.236;6.040;2023-04-24T18:40:35;23.50;40.40
74359;DHT22;62792;46.236;6.040;2023-04-24T18:45:38;23.50;40.40
74359;DHT22;62792;46.236;6.040;2023-04-24T18:50:42;23.50;40.50
74359;DHT22;62792;46.236;6.040;2023-04-24T18:55:46;23.40;40.60
74359;DHT22;62792;46.236;6.040;2023-04-24T19:00:49;23.40;40.70
74359;DHT22;62792;46.236;6.040;2023-04-24T19:05:52;23.40;40.60
74359;DHT22;62792;46.236;6.040;2023-04-24T19:10:56;23.30;40.80
74359;DHT22;62792;46.236;6.040;2023-04-24T19:16:00;23.30;40.80
74359;DHT22;62792;46.236;6.040;2023-04-24T19:21:03;23.20;40.90
74359;DHT22;62792;46.236;6.040;2023-04-24T19:26:07;23.20;40.80
74359;DHT22;62792;46.236;6.040;2023-04-24T19:31:10;23.20;40.80
74359;DHT22;62792;46.236;6.040;2023-04-24T19:36:13;23.10;40.90
74359;DHT22;62792;46.236;6.040;2023-04-24T19:41:17;23.10;40.90
74359;DHT22;62792;46.236;6.040;2023-04-24T19:46:20;23.10;41.10
74359;DHT22;62792;46.236;6.040;2023-04-24T19:51:26;23.10;40.90
74359;DHT22;62792;46.236;6.040;2023-04-24T19:56:30;23.00;40.90
74359;DHT22;62792;46.236;6.040;2023-04-24T20:01:33;23.10;41.00
74359;DHT22;62792;46.236;6.040;2023-04-24T20:06:36;23.00;41.00
74359;DHT22;62792;46.236;6.040;2023-04-24T20:11:41;23.00;41.00
74359;DHT22;62792;46.236;6.040;2023-04-24T20:16:45;23.00;41.00
74359;DHT22;62792;46.236;6.040;2023-04-24T20:21:48;22.90;41.20
74359;DHT22;62792;46.236;6.040;2023-04-24T20:26:52;23.00;40.90
74359;DHT22;62792;46.236;6.040;2023-04-24T20:31:55;22.90;41.20
74359;DHT22;62792;46.236;6.040;2023-04-24T20:36:58;22.90;41.10
74359;DHT22;62792;46.236;6.040;2023-04-24T20:42:02;22.80;41.20
74359;DHT22;62792;46.236;6.040;2023-04-24T20:47:05;22.90;41.20
74359;DHT22;62792;46.236;6.040;2023-04-24T20:52:08;22.90;41.20
74359;DHT22;62792;46.236;6.040;2023-04-24T20:57:12;22.90;41.30
74359;DHT22;62792;46.236;6.040;2023-04-24T21:02:16;22.90;41.30
74359;DHT22;62792;46.236;6.040;2023-04-24T21:07:19;22.80;41.20
74359;DHT22;62792;46.236;6.040;2023-04-24T21:12:23;22.80;41.20
74359;DHT22;62792;46.236;6.040;2023-04-24T21:17:26;22.80;41.50
74359;DHT22;62792;46.236;6.040;2023-04-24T21:22:29;22.70;41.40
74359;DHT22;62792;46.236;6.040;2023-04-24T21:27:33;22.70;41.40
74359;DHT22;62792;46.236;6.040;2023-04-24T21:32:36;22.70;41.20
74359;DHT22;62792;46.236;6.040;2023-04-24T21:37:41;22.70;41.20
74359;DHT22;62792;46.236;6.040;2023-04-24T21:42:45;22.70;41.40
74359;DHT22;62792;46.236;6.040;2023-04-24T21:47:48;22.70;41.50
74359;DHT22;62792;46.236;6.040;2023-04-24T21:52:51;22.70;41.60
74359;DHT22;62792;46.236;6.040;2023-04-24T21:57:56;22.80;41.40
74359;DHT22;62792;46.236;6.040;2023-04-24T22:02:58;22.80;41.70
74359;DHT22;62792;46.236;6.040;2023-04-24T22:08:02;22.70;41.50
74359;DHT22;62792;46.236;6.040;2023-04-24T22:13:07;22.60;41.60
74359;DHT22;62792;46.236;6.040;2023-04-24T22:18:10;22.70;41.60
74359;DHT22;62792;46.236;6.040;2023-04-24T22:23:13;22.60;41.70
74359;DHT22;62792;46.236;6.040;2023-04-24T22:28:18;22.60;41.60
74359;DHT22;62792;46.236;6.040;2023-04-24T22:33:21;22.60;41.70
74359;DHT22;62792;46.236;6.040;2023-04-24T22:38:23;22.60;42.00
74359;DHT22;62792;46.236;6.040;2023-04-24T22:43:28;22.70;41.90
74359;DHT22;62792;46.236;6.040;2023-04-24T22:48:31;22.60;41.80
74359;DHT22;62792;46.236;6.040;2023-04-24T22:53:35;22.70;41.80
74359;DHT22;62792;46.236;6.040;2023-04-24T22:58:39;22.60;41.80
74359;DHT22;62792;46.236;6.040;2023-04-24T23:03:42;22.60;41.90
74359;DHT22;62792;46.236;6.040;2023-04-24T23:08:45;22.60;41.80
74359;DHT22;62792;46.236;6.040;2023-04-24T23:13:49;22.60;42.00
74359;DHT22;62792;46.236;6.040;2023-04-24T23:18:53;22.60;42.00
74359;DHT22;62792;46.236;6.040;2023-04-24T23:23:56;22.50;42.10
74359;DHT22;62792;46.236;6.040;2023-04-24T23:29:00;22.60;42.10
74359;DHT22;62792;46.236;6.040;2023-04-24T23:34:03;22.50;42.10
74359;DHT22;62792;46.236;6.040;2023-04-24T23:39:06;22.50;42.40
74359;DHT22;62792;46.236;6.040;2023-04-24T23:44:10;22.50;42.30
74359;DHT22;62792;46.236;6.040;2023-04-24T23:49:13;22.60;42.10
74359;DHT22;62792;46.236;6.040;2023-04-24T23:54:16;22.50;42.20
74359;DHT22;62792;46.236;6.040;2023-04-24T23:59:21;22.60;42.10
